Time;durP1;ratioP1;P1;durP2;ratioP2;P2;SDS_P1;SDS_P2;PMS_P1;PMS_P2;Temp;Humidity;BMP_temperature;BMP_pressure;BME280_temperature;BME280_humidity;BME280_pressure;Samples;Min_cycle;Max_cycle;Signal;HPM_P1;HPM_P2
2022/11/27 00:00:53;;;;;;;30.85;15.80;;;;;;;;;;7344349;19;20771;-79
2022/11/27 00:03:18;;;;;;;33.13;14.90;;;;;;;;;;7353433;19;20006;-80
2022/11/27 00:05:50;;;;;;;38.08;16.35;;;;;;;;;;7341650;19;20277;-78
2022/11/27 00:08:15;;;;;;;33.08;15.52;;;;;;;;;;7359976;19;20018;-78
2022/11/27 00:10:40;;;;;;;38.80;17.63;;;;;;;;;;7363340;19;20037;-78
2022/11/27 00:13:05;;;;;;;39.35;17.90;;;;;;;;;;7342587;19;20098;-78
2022/11/27 00:15:31;;;;;;;40.20;17.67;;;;;;;;;;7352168;19;20010;-78
2022/11/27 00:17:56;;;;;;;40.72;17.15;;;;;;;;;;7363315;19;20332;-78
2022/11/27 00:20:21;;;;;;;35.65;17.80;;;;;;;;;;7349060;19;20010;-78
2022/11/27 00:22:46;;;;;;;28.20;14.32;;;;;;;;;;7347267;19;20002;-79
2022/11/27 00:25:11;;;;;;;38.03;17.33;;;;;;;;;;7357424;19;20015;-77
2022/11/27 00:27:37;;;;;;;37.05;22.45;;;;;;;;;;7367141;19;20439;-78
2022/11/27 00:30:02;;;;;;;35.00;22.40;;;;;;;;;;7363437;19;20342;-78
2022/11/27 00:32:27;;;;;;;44.55;21.83;;;;;;;;;;7342742;19;20038;-78
2022/11/27 00:34:53;;;;;;;36.42;19.77;;;;;;;;;;7342461;19;20025;-79
2022/11/27 00:37:18;;;;;;;35.35;19.67;;;;;;;;;;7356646;19;20022;-78
2022/11/27 00:39:43;;;;;;;38.43;19.50;;;;;;;;;;7358671;19;20010;-78
2022/11/27 00:42:08;;;;;;;36.65;20.35;;;;;;;;;;7365524;19;20251;-80
2022/11/27 00:44:33;;;;;;;45.47;19.90;;;;;;;;;;7369068;19;20581;-78
2022/11/27 00:46:58;;;;;;;35.45;19.45;;;;;;;;;;7359483;19;20572;-79
2022/11/27 00:49:24;;;;;;;36.85;19.55;;;;;;;;;;7322576;19;20330;-77
2022/11/27 00:51:49;;;;;;;39.33;19.25;;;;;;;;;;7370888;19;20364;-80
2022/11/27 00:54:14;;;;;;;42.53;19.73;;;;;;;;;;7369003;19;20616;-78
2022/11/27 00:56:39;;;;;;;33.70;17.50;;;;;;;;;;7365063;19;20578;-80
2022/11/27 00:59:05;;;;;;;41.67;19.33;;;;;;;;;;7369562;19;20027;-79
2022/11/27 01:01:35;;;;;;;41.88;19.30;;;;;;;;;;7367769;19;20018;-78
2022/11/27 01:04:02;;;;;;;41.97;21.00;;;;;;;;;;7319253;19;20022;-79
2022/11/27 01:06:28;;;;;;;38.47;20.35;;;;;;;;;;7371838;19;20002;-78
2022/11/27 01:08:53;;;;;;;44.78;21.48;;;;;;;;;;7371718;19;20027;-80
2022/11/27 01:11:24;;;;;;;34.28;20.58;;;;;;;;;;7364615;19;20007;-80
2022/11/27 01:13:50;;;;;;;37.50;20.73;;;;;;;;;;7368156;19;20011;-78
2022/11/27 01:16:17;;;;;;;45.85;22.25;;;;;;;;;;7343960;19;20009;-79
2022/11/27 01:18:43;;;;;;;38.85;23.00;;;;;;;;;;7366549;19;20673;-77
2022/11/27 01:21:08;;;;;;;37.75;22.33;;;;;;;;;;7374094;19;20312;-78
2022/11/27 01:23:33;;;;;;;36.97;22.40;;;;;;;;;;7375921;19;20018;-79
2022/11/27 01:26:00;;;;;;;44.33;23.33;;;;;;;;;;7362136;19;20018;-80
2022/11/27 01:28:25;;;;;;;39.58;23.98;;;;;;;;;;7373500;19;20014;-78
2022/11/27 01:30:50;;;;;;;41.78;22.85;;;;;;;;;;7352173;19;20037;-79
2022/11/27 01:33:16;;;;;;;36.58;19.60;;;;;;;;;;7353842;19;20014;-78
2022/11/27 01:35:41;;;;;;;40.70;21.70;;;;;;;;;;7376788;19;20018;-77
2022/11/27 01:38:06;;;;;;;38.60;20.88;;;;;;;;;;7371272;19;20006;-78
2022/11/27 01:40:32;;;;;;;37.92;20.50;;;;;;;;;;7361706;19;20010;-79
2022/11/27 01:42:57;;;;;;;40.30;21.13;;;;;;;;;;7372206;19;19999;-78
2022/11/27 01:45:22;;;;;;;44.88;20.80;;;;;;;;;;7368956;19;20003;-79
2022/11/27 01:47:53;;;;;;;40.75;22.10;;;;;;;;;;7367511;19;20060;-77
2022/11/27 01:50:27;;;;;;;45.35;23.90;;;;;;;;;;7373119;19;20490;-78
2022/11/27 01:52:54;;;;;;;44.13;25.02;;;;;;;;;;7372230;19;20066;-78
2022/11/27 01:55:23;;;;;;;45.83;26.27;;;;;;;;;;7336593;19;20025;-78
2022/11/27 01:57:52;;;;;;;52.55;26.58;;;;;;;;;;7373394;19;20010;-80
2022/11/27 02:00:17;;;;;;;39.97;23.83;;;;;;;;;;7368844;19;20022;-79
2022/11/27 02:02:43;;;;;;;53.80;24.88;;;;;;;;;;7352634;19;20633;-80
2022/11/27 02:05:10;;;;;;;44.45;24.70;;;;;;;;;;7362316;19;20102;-78
2022/11/27 02:07:35;;;;;;;44.17;23.52;;;;;;;;;;7362858;19;20034;-79
2022/11/27 02:10:02;;;;;;;43.13;22.02;;;;;;;;;;7370473;19;20474;-77
2022/11/27 02:12:32;;;;;;;33.60;20.42;;;;;;;;;;7373901;19;20010;-77
2022/11/27 02:15:20;;;;;;;39.53;22.60;;;;;;;;;;7362223;19;20003;-77
2022/11/27 02:17:45;;;;;;;43.67;21.80;;;;;;;;;;7361104;19;20010;-80
2022/11/27 02:20:16;;;;;;;43.37;22.67;;;;;;;;;;7366149;19;20424;-80
2022/11/27 02:22:55;;;;;;;44.88;22.55;;;;;;;;;;7364170;19;20336;-79
2022/11/27 02:25:33;;;;;;;43.70;24.27;;;;;;;;;;7343197;19;21223;-79
2022/11/27 02:27:58;;;;;;;44.30;22.73;;;;;;;;;;7348933;19;20006;-80
2022/11/27 02:30:24;;;;;;;42.00;24.27;;;;;;;;;;7349865;19;20106;-80
2022/11/27 02:32:49;;;;;;;43.17;23.50;;;;;;;;;;7344910;19;20835;-78
2022/11/27 02:35:19;;;;;;;41.50;24.38;;;;;;;;;;7355042;19;20010;-77
2022/11/27 02:37:46;;;;;;;51.08;25.55;;;;;;;;;;7369835;19;20011;-81
2022/11/27 02:40:12;;;;;;;48.95;27.08;;;;;;;;;;7359362;19;20014;-79
2022/11/27 02:42:53;;;;;;;51.67;26.17;;;;;;;;;;7364054;19;20037;-78
2022/11/27 02:45:38;;;;;;;44.63;25.05;;;;;;;;;;7368422;19;20255;-80
2022/11/27 02:48:05;;;;;;;50.30;23.98;;;;;;;;;;7359608;19;20421;-80
2022/11/27 02:50:31;;;;;;;45.83;25.55;;;;;;;;;;7375331;19;20025;-77
2022/11/27 02:52:58;;;;;;;49.13;25.38;;;;;;;;;;7370382;19;20014;-79
2022/11/27 02:55:25;;;;;;;46.95;26.58;;;;;;;;;;7365818;19;20014;-79
2022/11/27 02:57:52;;;;;;;56.03;28.20;;;;;;;;;;7334941;19;20907;-78
2022/11/27 03:00:18;;;;;;;45.45;27.08;;;;;;;;;;7340382;19;20549;-77
2022/11/27 03:02:45;;;;;;;50.17;27.52;;;;;;;;;;7323386;19;20015;-78
2022/11/27 03:05:14;;;;;;;49.58;27.13;;;;;;;;;;7341805;19;20015;-79
2022/11/27 03:07:48;;;;;;;61.65;28.58;;;;;;;;;;7347520;19;20007;-80
2022/11/27 03:10:18;;;;;;;59.65;29.38;;;;;;;;;;7361658;19;20343;-77
2022/11/27 03:12:44;;;;;;;52.53;29.73;;;;;;;;;;7361528;19;20456;-78
2022/11/27 03:15:10;;;;;;;52.95;28.05;;;;;;;;;;7360438;19;20106;-78
2022/11/27 03:17:36;;;;;;;59.80;27.38;;;;;;;;;;7345910;19;20039;-78
2022/11/27 03:20:36;;;;;;;58.47;29.30;;;;;;;;;;7362235;19;20006;-77
2022/11/27 03:23:01;;;;;;;53.40;26.63;;;;;;;;;;7347021;19;20014;-78
2022/11/27 03:25:27;;;;;;;52.67;27.10;;;;;;;;;;7344807;19;20022;-79
2022/11/27 03:28:03;;;;;;;60.17;25.35;;;;;;;;;;7344336;19;20007;-78
2022/11/27 03:30:29;;;;;;;47.58;25.30;;;;;;;;;;7345430;19;20010;-80
2022/11/27 03:32:54;;;;;;;48.85;23.92;;;;;;;;;;7348967;19;20030;-79
2022/11/27 03:35:22;;;;;;;48.72;24.45;;;;;;;;;;7317901;19;20014;-80
2022/11/27 03:37:47;;;;;;;57.17;24.25;;;;;;;;;;7333449;19;20033;-78
2022/11/27 03:40:13;;;;;;;81.78;33.58;;;;;;;;;;7339105;19;20003;-78
2022/11/27 03:42:57;;;;;;;51.17;23.10;;;;;;;;;;7347769;19;20011;-78
2022/11/27 03:45:29;;;;;;;46.15;22.55;;;;;;;;;;7346542;19;20022;-80
2022/11/27 03:47:57;;;;;;;45.60;22.73;;;;;;;;;;7332185;19;20085;-79
2022/11/27 03:50:31;;;;;;;45.83;21.25;;;;;;;;;;7341414;19;20006;-80
2022/11/27 03:53:07;;;;;;;47.30;22.15;;;;;;;;;;7354226;19;20005;-80
2022/11/27 03:55:38;;;;;;;38.17;19.63;;;;;;;;;;7343208;19;20035;-80
2022/11/27 03:58:07;;;;;;;45.80;21.77;;;;;;;;;;7315761;19;20014;-77
2022/11/27 04:00:34;;;;;;;42.45;21.25;;;;;;;;;;7336356;19;20798;-78
2022/11/27 04:03:00;;;;;;;45.58;20.45;;;;;;;;;;7341530;19;20018;-77
2022/11/27 04:05:25;;;;;;;33.85;18.95;;;;;;;;;;7341664;19;20029;-77
2022/11/27 04:07:50;;;;;;;40.43;20.17;;;;;;;;;;7344448;19;20014;-78
2022/11/27 04:10:16;;;;;;;45.30;20.42;;;;;;;;;;7350227;19;20267;-80
2022/11/27 04:12:41;;;;;;;40.65;22.10;;;;;;;;;;7340426;19;20018;-79
2022/11/27 04:15:07;;;;;;;49.10;21.45;;;;;;;;;;7345623;19;20015;-79
2022/11/27 04:17:32;;;;;;;39.75;20.23;;;;;;;;;;7342062;19;20011;-79
2022/11/27 04:19:57;;;;;;;43.78;20.67;;;;;;;;;;7353571;19;20027;-80
2022/11/27 04:22:22;;;;;;;45.03;19.30;;;;;;;;;;7352706;19;20464;-80
2022/11/27 04:24:47;;;;;;;42.87;19.67;;;;;;;;;;7356709;19;20014;-79
2022/11/27 04:27:13;;;;;;;43.58;20.20;;;;;;;;;;7340866;19;20267;-79
2022/11/27 04:29:38;;;;;;;40.65;18.70;;;;;;;;;;7345906;19;20085;-78
2022/11/27 04:32:04;;;;;;;41.17;19.55;;;;;;;;;;7348278;19;20007;-78
2022/11/27 04:34:29;;;;;;;42.75;17.90;;;;;;;;;;7330973;19;20495;-77
2022/11/27 04:36:54;;;;;;;41.03;18.20;;;;;;;;;;7349294;19;20006;-80
2022/11/27 04:39:19;;;;;;;35.42;18.17;;;;;;;;;;7343390;19;20007;-79
2022/11/27 04:41:44;;;;;;;36.03;17.75;;;;;;;;;;7349056;19;20003;-79
2022/11/27 04:44:10;;;;;;;40.95;18.13;;;;;;;;;;7348035;19;19998;-77
2022/11/27 04:46:35;;;;;;;36.95;17.17;;;;;;;;;;7343445;19;20011;-79
2022/11/27 04:49:00;;;;;;;38.63;18.25;;;;;;;;;;7339095;19;20088;-78
2022/11/27 04:51:26;;;;;;;36.30;18.20;;;;;;;;;;7347059;19;20376;-77
2022/11/27 04:53:51;;;;;;;39.60;18.70;;;;;;;;;;7345835;19;20070;-76
2022/11/27 04:56:16;;;;;;;39.25;19.05;;;;;;;;;;7348083;19;20007;-77
2022/11/27 04:58:41;;;;;;;40.13;18.63;;;;;;;;;;7330546;19;20077;-79
2022/11/27 05:01:07;;;;;;;40.95;18.73;;;;;;;;;;7337647;19;20014;-78
2022/11/27 05:03:33;;;;;;;38.97;19.67;;;;;;;;;;7334204;19;20007;-80
2022/11/27 05:05:58;;;;;;;39.10;20.45;;;;;;;;;;7340876;19;20045;-79
2022/11/27 05:08:23;;;;;;;39.72;20.10;;;;;;;;;;7348139;19;20011;-79
2022/11/27 05:11:03;;;;;;;35.40;18.65;;;;;;;;;;7361138;19;20009;-79
2022/11/27 05:13:28;;;;;;;41.95;20.77;;;;;;;;;;7365958;19;20078;-78
2022/11/27 05:15:53;;;;;;;45.65;21.75;;;;;;;;;;7357299;19;20042;-77
2022/11/27 05:18:18;;;;;;;48.47;20.90;;;;;;;;;;7362610;19;20002;-77
2022/11/27 05:20:44;;;;;;;52.00;21.33;;;;;;;;;;7375783;19;21236;-79
2022/11/27 05:23:09;;;;;;;45.60;21.03;;;;;;;;;;7359422;19;20006;-79
2022/11/27 05:25:34;;;;;;;44.43;21.20;;;;;;;;;;7370617;19;20279;-80
2022/11/27 05:27:59;;;;;;;37.20;20.33;;;;;;;;;;7371916;19;20283;-79
2022/11/27 05:30:24;;;;;;;46.17;22.13;;;;;;;;;;7343817;19;20317;-80
2022/11/27 05:32:49;;;;;;;44.97;21.40;;;;;;;;;;7323000;19;20014;-78
2022/11/27 05:35:15;;;;;;;45.30;22.38;;;;;;;;;;7367285;19;20003;-78
2022/11/27 05:37:40;;;;;;;49.67;22.13;;;;;;;;;;7368141;19;20044;-79
2022/11/27 05:40:05;;;;;;;44.35;21.75;;;;;;;;;;7363607;19;20014;-78
2022/11/27 05:42:30;;;;;;;46.08;22.50;;;;;;;;;;7358527;19;20629;-77
2022/11/27 05:44:56;;;;;;;46.22;21.40;;;;;;;;;;7366980;19;20002;-77
2022/11/27 05:47:21;;;;;;;46.30;22.05;;;;;;;;;;7350993;19;20014;-80
2022/11/27 05:49:46;;;;;;;48.00;22.30;;;;;;;;;;7363022;19;20058;-79
2022/11/27 05:52:11;;;;;;;41.17;21.15;;;;;;;;;;7364603;19;20011;-78
2022/11/27 05:54:36;;;;;;;40.53;19.60;;;;;;;;;;7365078;19;20111;-79
2022/11/27 05:57:02;;;;;;;40.05;20.88;;;;;;;;;;7362038;19;20961;-79
2022/11/27 05:59:27;;;;;;;40.55;20.67;;;;;;;;;;7367718;19;20380;-77
2022/11/27 06:01:52;;;;;;;42.72;20.95;;;;;;;;;;7342714;19;20415;-78
2022/11/27 06:04:17;;;;;;;41.25;20.40;;;;;;;;;;7355311;19;20010;-77
2022/11/27 06:06:43;;;;;;;41.60;19.77;;;;;;;;;;7367852;19;20033;-79
2022/11/27 06:09:08;;;;;;;49.10;19.83;;;;;;;;;;7364711;19;20621;-79
2022/11/27 06:11:33;;;;;;;36.88;19.38;;;;;;;;;;7359080;19;20640;-79
2022/11/27 06:13:58;;;;;;;40.97;20.40;;;;;;;;;;7356695;19;20007;-80
2022/11/27 06:16:23;;;;;;;35.40;20.08;;;;;;;;;;7347680;19;20270;-77
2022/11/27 06:18:50;;;;;;;51.75;21.75;;;;;;;;;;7369228;19;20013;-79
2022/11/27 06:21:15;;;;;;;40.67;20.98;;;;;;;;;;7359921;19;20055;-77
2022/11/27 06:23:41;;;;;;;40.42;22.20;;;;;;;;;;7370132;19;20371;-77
2022/11/27 06:26:20;;;;;;;41.35;21.83;;;;;;;;;;7366107;19;21043;-77
2022/11/27 06:28:46;;;;;;;42.65;21.38;;;;;;;;;;7364703;19;20018;-79
2022/11/27 06:31:13;;;;;;;40.33;21.35;;;;;;;;;;7348679;19;20014;-77
2022/11/27 06:33:38;;;;;;;36.17;20.38;;;;;;;;;;7350501;19;20976;-79
2022/11/27 06:36:04;;;;;;;38.08;21.80;;;;;;;;;;7353997;19;19999;-80
2022/11/27 06:38:31;;;;;;;39.13;20.58;;;;;;;;;;7368950;19;20032;-80
2022/11/27 06:41:00;;;;;;;39.95;20.05;;;;;;;;;;7357567;19;20535;-77
2022/11/27 06:43:25;;;;;;;33.55;19.13;;;;;;;;;;7361321;19;20018;-79
2022/11/27 06:45:57;;;;;;;39.85;20.00;;;;;;;;;;7345802;19;20019;-80
2022/11/27 06:48:22;;;;;;;42.22;21.63;;;;;;;;;;7359939;19;20017;-78
2022/11/27 06:50:48;;;;;;;45.35;19.92;;;;;;;;;;7365171;19;20010;-79
2022/11/27 06:53:13;;;;;;;37.80;20.50;;;;;;;;;;7342237;19;20007;-81
2022/11/27 06:55:38;;;;;;;37.05;18.65;;;;;;;;;;7360522;19;20007;-79
2022/11/27 06:58:03;;;;;;;40.63;19.70;;;;;;;;;;7362477;19;20015;-78
2022/11/27 07:00:28;;;;;;;33.78;19.67;;;;;;;;;;7361828;19;20271;-81
2022/11/27 07:02:54;;;;;;;40.10;20.40;;;;;;;;;;7348887;19;20011;-80
2022/11/27 07:05:20;;;;;;;40.38;21.02;;;;;;;;;;7364515;19;20278;-77
2022/11/27 07:07:45;;;;;;;40.28;20.67;;;;;;;;;;7366715;19;20018;-77
2022/11/27 07:10:10;;;;;;;38.38;18.88;;;;;;;;;;7353436;19;20037;-77
2022/11/27 07:12:35;;;;;;;37.40;19.45;;;;;;;;;;7366970;19;19994;-80
2022/11/27 07:15:00;;;;;;;35.13;18.88;;;;;;;;;;7356654;19;20348;-80
2022/11/27 07:17:26;;;;;;;35.57;19.00;;;;;;;;;;7353381;19;20007;-81
2022/11/27 07:19:51;;;;;;;35.85;17.83;;;;;;;;;;7369003;19;20259;-79
2022/11/27 07:22:16;;;;;;;39.88;19.02;;;;;;;;;;7363488;19;20021;-77
2022/11/27 07:24:41;;;;;;;38.78;18.73;;;;;;;;;;7364465;19;20754;-78
2022/11/27 07:27:07;;;;;;;38.80;20.15;;;;;;;;;;7354873;19;20007;-78
2022/11/27 07:29:32;;;;;;;35.08;18.88;;;;;;;;;;7366345;19;20118;-78
2022/11/27 07:31:57;;;;;;;37.90;19.15;;;;;;;;;;7353300;19;20936;-79
2022/11/27 07:34:23;;;;;;;40.33;20.70;;;;;;;;;;7359897;19;20006;-80
2022/11/27 07:36:48;;;;;;;41.00;20.23;;;;;;;;;;7352668;19;20359;-80
2022/11/27 07:39:13;;;;;;;39.33;18.65;;;;;;;;;;7362464;19;20025;-80
2022/11/27 07:41:38;;;;;;;38.42;20.30;;;;;;;;;;7364046;19;20021;-80
2022/11/27 07:44:03;;;;;;;39.47;20.07;;;;;;;;;;7347312;19;20519;-78
2022/11/27 07:46:29;;;;;;;42.70;19.42;;;;;;;;;;7347276;19;20271;-79
2022/11/27 07:48:54;;;;;;;33.33;18.77;;;;;;;;;;7355324;19;20026;-80
2022/11/27 07:51:21;;;;;;;39.67;19.27;;;;;;;;;;7354084;19;20430;-80
2022/11/27 07:53:47;;;;;;;38.00;19.38;;;;;;;;;;7364364;19;20612;-79
2022/11/27 07:56:13;;;;;;;35.13;18.40;;;;;;;;;;7329015;19;20014;-79
2022/11/27 07:58:38;;;;;;;38.72;20.83;;;;;;;;;;7366192;19;20007;-81
2022/11/27 08:01:08;;;;;;;42.63;20.85;;;;;;;;;;7332748;19;20011;-81
2022/11/27 08:03:33;;;;;;;39.80;21.38;;;;;;;;;;7349659;19;20101;-79
2022/11/27 08:05:58;;;;;;;37.35;19.88;;;;;;;;;;7362358;19;20753;-79
2022/11/27 08:08:23;;;;;;;31.73;18.13;;;;;;;;;;7360258;19;20774;-78
2022/11/27 08:10:48;;;;;;;30.85;16.38;;;;;;;;;;7337086;19;20259;-77
2022/11/27 08:13:14;;;;;;;33.57;16.53;;;;;;;;;;7344962;19;20013;-78
2022/11/27 08:15:39;;;;;;;33.70;17.17;;;;;;;;;;7333842;19;20675;-80
2022/11/27 08:18:04;;;;;;;30.00;16.63;;;;;;;;;;7299793;19;20041;-80
2022/11/27 08:20:29;;;;;;;31.88;16.60;;;;;;;;;;7345501;19;20011;-81
2022/11/27 08:22:55;;;;;;;25.83;14.63;;;;;;;;;;7338836;19;20247;-80
2022/11/27 08:25:20;;;;;;;31.77;16.13;;;;;;;;;;7326611;19;20031;-82
2022/11/27 08:27:47;;;;;;;28.23;15.43;;;;;;;;;;7351474;19;20015;-80
2022/11/27 08:30:12;;;;;;;30.13;14.70;;;;;;;;;;7352344;19;20015;-80
2022/11/27 08:32:38;;;;;;;27.45;14.93;;;;;;;;;;7350325;19;20014;-81
2022/11/27 08:35:04;;;;;;;24.40;13.93;;;;;;;;;;7352426;19;20026;-80
2022/11/27 08:37:29;;;;;;;29.85;15.27;;;;;;;;;;7362073;19;20018;-81
2022/11/27 08:39:54;;;;;;;27.35;14.35;;;;;;;;;;7330020;19;20041;-80
2022/11/27 08:42:19;;;;;;;28.02;14.23;;;;;;;;;;7347602;19;20097;-80
2022/11/27 08:44:45;;;;;;;26.63;14.07;;;;;;;;;;7348178;19;20011;-81
2022/11/27 08:47:10;;;;;;;24.63;14.05;;;;;;;;;;7356236;19;21080;-81
2022/11/27 08:49:35;;;;;;;24.45;13.40;;;;;;;;;;7357440;19;20017;-80
2022/11/27 08:52:01;;;;;;;26.63;14.45;;;;;;;;;;7356255;19;20010;-80
2022/11/27 08:54:26;;;;;;;27.15;15.35;;;;;;;;;;7366491;19;20475;-82
2022/11/27 08:56:51;;;;;;;30.80;15.45;;;;;;;;;;7357030;19;20390;-81
2022/11/27 08:59:16;;;;;;;31.35;17.92;;;;;;;;;;7364112;19;20015;-82
2022/11/27 09:01:42;;;;;;;31.40;17.40;;;;;;;;;;7364502;19;20436;-80
2022/11/27 09:04:07;;;;;;;31.05;17.02;;;;;;;;;;7350975;19;20010;-80
2022/11/27 09:06:33;;;;;;;30.95;16.08;;;;;;;;;;7369384;19;20744;-81
2022/11/27 09:08:59;;;;;;;32.90;15.77;;;;;;;;;;7361458;19;20122;-81
2022/11/27 09:11:25;;;;;;;27.10;15.52;;;;;;;;;;7359053;19;20009;-81
2022/11/27 09:13:51;;;;;;;26.35;15.50;;;;;;;;;;7350116;19;20014;-80
2022/11/27 09:16:17;;;;;;;26.17;15.15;;;;;;;;;;7362709;19;20022;-81
2022/11/27 09:18:43;;;;;;;29.90;16.60;;;;;;;;;;7338443;19;20771;-81
2022/11/27 09:21:10;;;;;;;26.83;14.98;;;;;;;;;;7343809;19;20018;-81
2022/11/27 09:23:36;;;;;;;26.60;14.48;;;;;;;;;;7363646;19;21099;-80
2022/11/27 09:26:02;;;;;;;29.85;15.07;;;;;;;;;;7366708;19;20040;-80
2022/11/27 09:28:28;;;;;;;24.98;14.15;;;;;;;;;;7357664;19;20067;-81
2022/11/27 09:30:54;;;;;;;23.52;13.93;;;;;;;;;;7351934;19;20598;-81
2022/11/27 09:33:19;;;;;;;23.23;13.57;;;;;;;;;;7365694;19;21682;-81
2022/11/27 09:35:44;;;;;;;26.80;14.93;;;;;;;;;;7356923;19;20418;-80
2022/11/27 09:38:09;;;;;;;27.53;14.30;;;;;;;;;;7364278;19;20010;-80
2022/11/27 09:40:35;;;;;;;24.00;13.87;;;;;;;;;;7369667;19;20915;-81
2022/11/27 09:43:05;;;;;;;25.38;12.90;;;;;;;;;;7360319;19;20310;-81
2022/11/27 09:45:30;;;;;;;22.67;13.52;;;;;;;;;;7359000;19;20046;-81
2022/11/27 09:47:59;;;;;;;23.35;12.43;;;;;;;;;;7361956;19;20902;-81
2022/11/27 09:50:30;;;;;;;24.40;13.07;;;;;;;;;;7309358;19;20038;-80
2022/11/27 09:53:02;;;;;;;27.67;12.77;;;;;;;;;;7342820;19;20016;-81
2022/11/27 09:55:27;;;;;;;31.83;13.32;;;;;;;;;;7357199;19;20030;-80
2022/11/27 09:57:57;;;;;;;28.80;14.23;;;;;;;;;;7367482;19;20384;-81
2022/11/27 10:00:22;;;;;;;22.65;12.65;;;;;;;;;;7356236;19;20260;-82
2022/11/27 10:02:47;;;;;;;28.63;14.48;;;;;;;;;;7363670;19;20019;-80
2022/11/27 10:05:17;;;;;;;25.15;13.73;;;;;;;;;;7364079;19;20081;-80
2022/11/27 10:07:54;;;;;;;26.48;14.20;;;;;;;;;;7330970;19;20082;-80
2022/11/27 10:10:19;;;;;;;27.00;14.00;;;;;;;;;;7354713;19;20022;-82
2022/11/27 10:12:44;;;;;;;27.02;13.73;;;;;;;;;;7338317;19;20139;-81
2022/11/27 10:15:14;;;;;;;26.73;14.23;;;;;;;;;;7341098;19;20027;-80
2022/11/27 10:17:51;;;;;;;28.15;14.27;;;;;;;;;;7349411;19;20802;-81
2022/11/27 10:20:34;;;;;;;26.80;13.13;;;;;;;;;;7357314;19;20021;-80
2022/11/27 10:23:15;;;;;;;22.90;12.50;;;;;;;;;;7336376;19;20121;-81
2022/11/27 10:25:47;;;;;;;27.10;13.35;;;;;;;;;;7355369;19;20094;-80
2022/11/27 10:28:28;;;;;;;28.27;13.70;;;;;;;;;;7351788;19;20027;-80
2022/11/27 10:30:56;;;;;;;20.33;11.45;;;;;;;;;;7353402;19;20018;-80
2022/11/27 10:33:24;;;;;;;22.25;12.15;;;;;;;;;;7344105;19;20027;-80
2022/11/27 10:35:50;;;;;;;25.77;12.68;;;;;;;;;;7361567;19;20436;-81
2022/11/27 10:38:17;;;;;;;22.10;11.93;;;;;;;;;;7353744;19;20011;-81
2022/11/27 10:40:47;;;;;;;24.55;12.32;;;;;;;;;;7347983;19;20011;-80
2022/11/27 10:43:18;;;;;;;21.45;12.32;;;;;;;;;;7350196;19;20515;-81
2022/11/27 10:45:48;;;;;;;21.45;11.30;;;;;;;;;;7348536;19;20675;-80
2022/11/27 10:48:14;;;;;;;25.70;12.23;;;;;;;;;;7337420;19;20544;-80
2022/11/27 10:50:40;;;;;;;21.23;12.80;;;;;;;;;;7359518;19;20010;-79
2022/11/27 10:53:07;;;;;;;22.83;12.15;;;;;;;;;;7343401;19;20010;-80
2022/11/27 10:55:35;;;;;;;21.60;12.32;;;;;;;;;;7349114;19;20082;-79
2022/11/27 10:58:10;;;;;;;19.65;10.60;;;;;;;;;;7348306;19;20035;-80
2022/11/27 11:00:35;;;;;;;21.63;10.35;;;;;;;;;;7364536;19;20040;-80
2022/11/27 11:03:01;;;;;;;24.25;10.02;;;;;;;;;;7338246;19;20484;-81
2022/11/27 11:05:27;;;;;;;17.02;9.73;;;;;;;;;;7361421;19;20014;-80
2022/11/27 11:07:57;;;;;;;21.55;11.00;;;;;;;;;;7361378;19;20781;-81
2022/11/27 11:10:43;;;;;;;20.67;10.57;;;;;;;;;;7350479;19;20031;-81
2022/11/27 11:13:13;;;;;;;21.30;10.00;;;;;;;;;;7352181;19;20368;-81
2022/11/27 11:15:49;;;;;;;18.60;9.50;;;;;;;;;;7350600;19;20014;-80
2022/11/27 11:18:15;;;;;;;18.20;9.75;;;;;;;;;;7347181;19;20026;-80
2022/11/27 11:20:42;;;;;;;17.63;9.80;;;;;;;;;;7349594;19;20003;-81
2022/11/27 11:23:15;;;;;;;17.65;9.65;;;;;;;;;;7356829;19;20495;-81
2022/11/27 11:25:47;;;;;;;18.38;9.57;;;;;;;;;;7348968;19;20056;-81
2022/11/27 11:28:14;;;;;;;17.90;8.18;;;;;;;;;;7338135;19;21399;-81
2022/11/27 11:30:39;;;;;;;17.77;8.27;;;;;;;;;;7341917;19;20011;-81
2022/11/27 11:33:05;;;;;;;17.80;8.10;;;;;;;;;;7338108;19;20007;-80
2022/11/27 11:35:34;;;;;;;21.27;8.82;;;;;;;;;;7319008;19;20927;-82
2022/11/27 11:38:00;;;;;;;19.15;9.02;;;;;;;;;;7346976;19;20442;-81
2022/11/27 11:40:28;;;;;;;16.92;8.57;;;;;;;;;;7337100;19;20016;-81
2022/11/27 11:42:58;;;;;;;15.40;8.65;;;;;;;;;;7341592;19;20374;-81
2022/11/27 11:45:24;;;;;;;18.40;8.55;;;;;;;;;;7345684;19;20006;-84
2022/11/27 11:47:53;;;;;;;15.13;8.73;;;;;;;;;;7349071;19;20007;-80
2022/11/27 11:50:30;;;;;;;18.25;8.70;;;;;;;;;;7363540;19;20109;-80
2022/11/27 11:53:05;;;;;;;17.30;9.20;;;;;;;;;;7356939;19;20006;-80
2022/11/27 11:55:37;;;;;;;16.35;8.52;;;;;;;;;;7351781;19;20037;-80
2022/11/27 11:58:09;;;;;;;17.65;8.43;;;;;;;;;;7349541;19;20010;-82
2022/11/27 12:00:42;;;;;;;15.25;8.77;;;;;;;;;;7348044;19;20006;-80
2022/11/27 12:03:14;;;;;;;16.03;8.37;;;;;;;;;;7328079;19;20020;-80
2022/11/27 12:05:47;;;;;;;14.77;8.20;;;;;;;;;;7350631;19;20523;-80
2022/11/27 12:08:12;;;;;;;14.68;7.35;;;;;;;;;;7355763;19;20019;-82
2022/11/27 12:10:47;;;;;;;17.90;7.87;;;;;;;;;;7358478;19;20009;-81
2022/11/27 12:13:22;;;;;;;14.32;7.32;;;;;;;;;;7353339;19;20285;-81
2022/11/27 12:16:06;;;;;;;16.60;8.52;;;;;;;;;;7352843;19;20018;-81
2022/11/27 12:18:35;;;;;;;13.75;7.22;;;;;;;;;;7338773;19;20015;-80
2022/11/27 12:21:03;;;;;;;14.68;8.07;;;;;;;;;;7353164;19;20015;-80
2022/11/27 12:23:34;;;;;;;16.98;8.70;;;;;;;;;;7350001;19;20013;-79
2022/11/27 12:26:17;;;;;;;19.17;8.75;;;;;;;;;;7337471;19;20037;-80
2022/11/27 12:28:51;;;;;;;16.58;8.43;;;;;;;;;;7362656;19;20014;-79
2022/11/27 12:31:24;;;;;;;18.27;8.73;;;;;;;;;;7347112;19;20006;-80
2022/11/27 12:33:49;;;;;;;13.32;7.93;;;;;;;;;;7354024;19;20193;-79
2022/11/27 12:36:17;;;;;;;13.80;8.23;;;;;;;;;;7361753;19;20567;-79
2022/11/27 12:38:56;;;;;;;15.20;8.05;;;;;;;;;;7354032;19;20339;-80
2022/11/27 12:41:29;;;;;;;17.50;8.38;;;;;;;;;;7358012;19;20106;-79
2022/11/27 12:43:59;;;;;;;19.90;8.57;;;;;;;;;;7360565;19;20013;-80
2022/11/27 12:46:27;;;;;;;16.10;8.05;;;;;;;;;;7355927;19;20010;-79
2022/11/27 12:48:54;;;;;;;16.67;8.20;;;;;;;;;;7331224;19;20018;-80
2022/11/27 12:51:20;;;;;;;13.57;7.43;;;;;;;;;;7338999;19;20093;-81
2022/11/27 12:53:49;;;;;;;15.70;8.10;;;;;;;;;;7327342;19;21443;-80
2022/11/27 12:56:20;;;;;;;14.65;7.72;;;;;;;;;;7355547;19;20266;-80
2022/11/27 12:58:48;;;;;;;18.48;7.85;;;;;;;;;;7358721;19;20130;-81
2022/11/27 13:01:16;;;;;;;14.35;7.53;;;;;;;;;;7318464;19;20009;-81
2022/11/27 13:04:00;;;;;;;13.98;7.68;;;;;;;;;;7346837;19;20389;-80
2022/11/27 13:06:27;;;;;;;15.23;8.40;;;;;;;;;;7354758;19;20546;-80
2022/11/27 13:08:57;;;;;;;15.52;7.45;;;;;;;;;;7360245;19;20023;-79
2022/11/27 13:11:25;;;;;;;15.23;7.38;;;;;;;;;;7347639;19;20011;-80
2022/11/27 13:13:53;;;;;;;13.50;7.75;;;;;;;;;;7366653;19;20537;-80
2022/11/27 13:16:28;;;;;;;18.50;7.72;;;;;;;;;;7359454;19;20329;-80
2022/11/27 13:18:56;;;;;;;13.32;7.57;;;;;;;;;;7348547;19;20015;-80
2022/11/27 13:21:23;;;;;;;15.57;7.78;;;;;;;;;;7363110;19;20010;-80
2022/11/27 13:23:49;;;;;;;14.30;7.55;;;;;;;;;;7363797;19;20094;-79
2022/11/27 13:26:20;;;;;;;16.20;7.28;;;;;;;;;;7312078;19;20106;-80
2022/11/27 13:28:49;;;;;;;14.77;7.13;;;;;;;;;;7347693;19;20078;-80
2022/11/27 13:31:19;;;;;;;14.43;7.05;;;;;;;;;;7349534;19;20010;-81
2022/11/27 13:33:45;;;;;;;13.32;7.15;;;;;;;;;;7315560;19;20011;-81
2022/11/27 13:36:19;;;;;;;12.50;6.47;;;;;;;;;;7365619;19;20344;-80
2022/11/27 13:38:45;;;;;;;15.30;7.80;;;;;;;;;;7359507;19;20074;-80
2022/11/27 13:41:18;;;;;;;12.45;7.05;;;;;;;;;;7353535;19;20098;-80
2022/11/27 13:43:45;;;;;;;14.32;6.97;;;;;;;;;;7370287;19;20014;-82
2022/11/27 13:46:19;;;;;;;15.18;7.95;;;;;;;;;;7366698;19;20435;-80
2022/11/27 13:48:50;;;;;;;15.77;7.22;;;;;;;;;;7341829;19;20023;-80
2022/11/27 13:51:34;;;;;;;17.00;6.90;;;;;;;;;;7369472;19;20459;-79
2022/11/27 13:53:59;;;;;;;;;;;;;;;;;;7363749;19;21021;-80
2022/11/27 13:56:30;;;;;;;14.43;7.10;;;;;;;;;;7364802;19;19918;-80
2022/11/27 13:58:55;;;;;;;14.40;7.00;;;;;;;;;;7371889;19;20083;-80
2022/11/27 14:01:21;;;;;;;17.92;7.38;;;;;;;;;;7358308;19;20088;-79
2022/11/27 14:03:47;;;;;;;12.18;6.10;;;;;;;;;;7351695;19;20514;-80
2022/11/27 14:06:29;;;;;;;12.93;6.30;;;;;;;;;;7348917;19;20006;-80
2022/11/27 14:08:55;;;;;;;13.88;6.60;;;;;;;;;;7370727;19;20476;-79
2022/11/27 14:11:29;;;;;;;14.10;6.95;;;;;;;;;;7369262;19;20529;-80
2022/11/27 14:13:55;;;;;;;12.65;6.78;;;;;;;;;;7358672;19;20069;-80
2022/11/27 14:16:31;;;;;;;14.38;6.70;;;;;;;;;;7359949;19;20014;-80
2022/11/27 14:18:58;;;;;;;14.15;6.90;;;;;;;;;;7347114;19;20086;-80
2022/11/27 14:21:38;;;;;;;14.48;7.25;;;;;;;;;;7340082;19;20030;-80
2022/11/27 14:24:23;;;;;;;13.73;7.03;;;;;;;;;;7339672;19;20621;-79